createdAt,value
2017-03-08T00:00:32.968Z,934.8
2017-03-08T00:01:46.324Z,934.82
2017-03-08T00:02:59.857Z,934.82
2017-03-08T00:04:13.191Z,934.78
2017-03-08T00:05:40.496Z,934.75
2017-03-08T00:06:53.851Z,934.73
2017-03-08T00:08:06.673Z,934.7
2017-03-08T00:09:19.439Z,934.7
2017-03-08T00:10:32.208Z,934.69
2017-03-08T00:11:45.583Z,934.72
2017-03-08T00:13:12.881Z,934.74
2017-03-08T00:14:26.258Z,934.81
2017-03-08T00:15:39.597Z,934.87
2017-03-08T00:16:52.919Z,934.89
2017-03-08T00:18:06.431Z,934.93
2017-03-08T00:19:19.750Z,934.93
2017-03-08T00:20:33.089Z,934.9
2017-03-08T00:21:46.409Z,934.93
2017-03-08T00:23:13.942Z,934.86
2017-03-08T00:24:26.707Z,934.86
2017-03-08T00:25:40.049Z,934.88
2017-03-08T00:26:53.382Z,934.8
2017-03-08T00:28:06.700Z,934.78
2017-03-08T00:29:20.020Z,934.74
2017-03-08T00:30:33.363Z,934.71
2017-03-08T00:31:46.686Z,934.69
2017-03-08T00:33:13.393Z,934.67
2017-03-08T00:34:26.716Z,934.71
2017-03-08T00:35:39.532Z,934.73
2017-03-08T00:36:52.873Z,934.8
2017-03-08T00:38:06.203Z,934.82
2017-03-08T00:39:19.538Z,934.84
2017-03-08T00:40:32.870Z,934.92
2017-03-08T00:41:46.204Z,934.99
2017-03-08T00:42:59.561Z,935.01
2017-03-08T00:44:13.106Z,935.01
2017-03-08T00:45:26.428Z,935.03
2017-03-08T00:46:39.193Z,935.05
2017-03-08T00:47:51.934Z,935.11
2017-03-08T00:49:05.264Z,935.13
2017-03-08T00:50:18.197Z,935.12
2017-03-08T00:51:31.546Z,935.1
2017-03-08T00:52:44.895Z,935.14
2017-03-08T00:53:58.248Z,935.08
2017-03-08T00:55:11.873Z,935.08
2017-03-08T00:56:25.239Z,935.11
2017-03-08T00:57:38.545Z,935.04
2017-03-08T00:58:51.324Z,934.96
2017-03-08T01:00:04.105Z,934.85
2017-03-08T01:01:17.443Z,934.81
2017-03-08T01:02:30.774Z,934.71
2017-03-08T01:03:44.111Z,934.62
2017-03-08T01:04:57.508Z,934.63
2017-03-08T01:06:10.877Z,934.63
2017-03-08T01:07:38.178Z,934.64
2017-03-08T01:08:51.508Z,934.65
2017-03-08T01:10:04.864Z,934.68
2017-03-08T01:11:17.835Z,934.65
2017-03-08T01:12:31.181Z,934.7
2017-03-08T01:13:44.486Z,934.8
2017-03-08T01:15:11.792Z,934.86
2017-03-08T01:16:25.542Z,934.87
2017-03-08T01:17:52.852Z,934.88
2017-03-08T01:19:05.619Z,934.87
2017-03-08T01:20:18.969Z,934.85
2017-03-08T01:21:32.616Z,934.8
2017-03-08T01:22:45.954Z,934.64
2017-03-08T01:23:59.292Z,934.6
2017-03-08T01:25:12.627Z,934.44
2017-03-08T01:26:26.006Z,934.38
2017-03-08T01:27:39.527Z,934.26
2017-03-08T01:28:52.867Z,934.22
2017-03-08T01:30:05.646Z,934.19
2017-03-08T01:31:18.649Z,934.32
2017-03-08T01:32:31.992Z,934.45
2017-03-08T01:33:45.300Z,934.52
2017-03-08T01:34:58.700Z,934.62
2017-03-08T01:36:25.450Z,934.72
2017-03-08T01:37:38.777Z,934.8
2017-03-08T01:38:52.106Z,934.86
2017-03-08T01:40:05.438Z,934.92
2017-03-08T01:41:18.766Z,934.96
2017-03-08T01:42:32.109Z,935.01
2017-03-08T01:43:45.436Z,935.04
2017-03-08T01:44:58.769Z,934.99
2017-03-08T01:46:12.103Z,934.97
2017-03-08T01:47:39.401Z,934.95
2017-03-08T01:48:51.822Z,934.96
2017-03-08T01:50:05.200Z,935
2017-03-08T01:51:17.968Z,935.04
2017-03-08T01:52:45.005Z,935.06
2017-03-08T01:53:57.783Z,935.13
2017-03-08T01:55:11.091Z,935.15
2017-03-08T01:56:23.865Z,935.18
2017-03-08T01:57:37.218Z,935.19
2017-03-08T01:58:50.760Z,935.18
2017-03-08T02:01:31.596Z,935.18
2017-03-08T02:02:44.942Z,935.07
2017-03-08T02:03:58.497Z,935.02
2017-03-08T02:05:11.837Z,935.03
2017-03-08T02:06:25.156Z,935.06
2017-03-08T02:07:38.895Z,935.08
2017-03-08T02:09:06.395Z,935.15
2017-03-08T02:10:19.743Z,935.17
2017-03-08T02:11:32.515Z,935.21
2017-03-08T02:12:45.839Z,935.18
2017-03-08T02:13:59.392Z,935.23
2017-03-08T02:15:12.736Z,935.2
2017-03-08T02:16:26.074Z,935.23
2017-03-08T02:17:38.300Z,935.3
2017-03-08T02:18:51.659Z,935.34
2017-03-08T02:20:05.012Z,935.42
2017-03-08T02:21:18.342Z,935.4
2017-03-08T02:22:31.120Z,935.48
2017-03-08T02:23:44.466Z,935.49
2017-03-08T02:24:57.800Z,935.51
2017-03-08T02:26:25.328Z,935.52
2017-03-08T02:27:38.745Z,935.49
2017-03-08T02:28:52.082Z,935.49
2017-03-08T02:30:05.454Z,935.5
2017-03-08T02:31:46.727Z,935.53
2017-03-08T02:32:59.528Z,935.56
2017-03-08T02:34:12.873Z,935.52
2017-03-08T02:35:26.516Z,935.52
2017-03-08T02:36:39.847Z,935.51
2017-03-08T02:37:53.185Z,935.51
2017-03-08T02:39:05.980Z,935.58
2017-03-08T02:40:19.342Z,935.59
2017-03-08T02:41:32.991Z,935.56
2017-03-08T02:42:46.344Z,935.53
2017-03-08T02:43:59.669Z,935.52
2017-03-08T02:45:13.199Z,935.51
2017-03-08T02:46:26.564Z,935.52
2017-03-08T02:47:39.913Z,935.52
2017-03-08T02:48:53.289Z,935.52
2017-03-08T02:50:20.602Z,935.47
2017-03-08T02:51:33.976Z,935.4
2017-03-08T02:52:47.338Z,935.39
2017-03-08T02:54:00.692Z,935.37
2017-03-08T02:55:13.472Z,935.35
2017-03-08T02:56:26.255Z,935.34
2017-03-08T02:57:39.213Z,935.3
2017-03-08T02:58:51.948Z,935.27
2017-03-08T03:00:05.311Z,935.23
2017-03-08T03:01:18.083Z,935.18
2017-03-08T03:02:31.430Z,935.14
2017-03-08T03:03:44.769Z,935.16
2017-03-08T03:04:58.099Z,935.11
2017-03-08T03:06:11.422Z,935.09
2017-03-08T03:07:24.751Z,935.02
2017-03-08T03:08:38.101Z,934.95
2017-03-08T03:09:51.455Z,934.97
2017-03-08T03:11:04.791Z,935
2017-03-08T03:12:18.153Z,934.98
2017-03-08T03:13:31.802Z,935.01
2017-03-08T03:14:45.147Z,934.98
2017-03-08T03:15:58.494Z,934.97
2017-03-08T03:17:11.830Z,934.97
2017-03-08T11:11:48.817Z,934.97
2017-03-08T11:13:02.211Z,934.97
2017-03-08T11:14:15.619Z,934.98
2017-03-08T11:15:29.131Z,935
2017-03-08T11:16:42.511Z,935.01
2017-03-08T11:17:55.996Z,934.98
2017-03-08T11:19:23.369Z,935.04
2017-03-08T11:20:36.918Z,935.06
2017-03-08T11:21:49.264Z,935.07
2017-03-08T11:23:16.910Z,935.05
2017-03-08T11:24:29.239Z,935.08
2017-03-08T11:25:56.138Z,935.1
2017-03-08T11:27:09.410Z,935.12
2017-03-08T11:28:22.686Z,935.09
2017-03-08T11:29:35.979Z,935.14
2017-03-08T11:30:49.250Z,935.15
2017-03-08T11:32:02.583Z,935.17
2017-03-08T11:33:15.871Z,935.15
2017-03-08T11:34:29.202Z,935.18
2017-03-08T11:35:41.945Z,935.19
2017-03-08T11:36:55.241Z,935.17
2017-03-08T11:38:08.737Z,935.23
2017-03-08T11:39:21.469Z,935.26
2017-03-08T11:40:34.218Z,935.23
2017-03-08T11:41:46.987Z,935.22
2017-03-08T11:43:14.256Z,935.2
2017-03-08T11:44:27.557Z,935.23
2017-03-08T11:45:40.839Z,935.26
2017-03-08T11:47:08.110Z,935.26
2017-03-08T11:48:21.422Z,935.27
2017-03-08T11:49:34.143Z,935.28
2017-03-08T11:50:47.448Z,935.29
2017-03-08T11:52:00.757Z,935.31
2017-03-08T11:53:13.506Z,935.31
2017-03-08T11:54:26.978Z,935.36
2017-03-08T11:55:39.891Z,935.34
2017-03-08T11:56:53.359Z,935.35
2017-03-08T11:58:06.912Z,935.34
2017-03-08T11:59:20.488Z,935.31
2017-03-08T12:00:33.996Z,935.33
2017-03-08T12:02:01.260Z,935.35
2017-03-08T12:03:13.963Z,935.35
2017-03-08T12:04:27.271Z,935.43
2017-03-08T12:05:40.550Z,935.4
2017-03-08T12:06:53.266Z,935.35
2017-03-08T12:08:20.518Z,935.35
2017-03-08T12:09:33.807Z,935.32
2017-03-08T12:10:47.096Z,935.32
2017-03-08T12:12:28.349Z,935.31
2017-03-08T12:13:41.644Z,935.31
2017-03-08T12:14:55.123Z,935.31
2017-03-08T12:16:08.404Z,935.31
2017-03-08T12:17:20.552Z,935.32
2017-03-08T12:18:47.826Z,935.33
2017-03-08T12:20:01.126Z,935.33
2017-03-08T12:21:14.410Z,935.34
2017-03-08T12:22:27.726Z,935.38
2017-03-08T12:23:41.036Z,935.38
2017-03-08T12:24:53.769Z,935.39
2017-03-08T12:26:07.268Z,935.35
2017-03-08T12:27:20.596Z,935.37
2017-03-08T12:28:33.895Z,935.36
2017-03-08T12:29:46.604Z,935.36
2017-03-08T12:31:00.212Z,935.36
2017-03-08T12:32:26.964Z,935.4
2017-03-08T12:33:40.266Z,935.37
2017-03-08T12:34:52.996Z,935.41
2017-03-08T12:36:06.501Z,935.43
2017-03-08T12:37:19.203Z,935.44
2017-03-08T12:38:32.500Z,935.46
2017-03-08T12:39:45.880Z,935.44
2017-03-08T12:40:59.165Z,935.44
2017-03-08T12:42:12.472Z,935.41
2017-03-08T12:43:39.741Z,935.42
2017-03-08T12:44:52.450Z,935.39
2017-03-08T12:46:05.746Z,935.42
2017-03-08T12:47:19.223Z,935.45
2017-03-08T12:48:32.519Z,935.44
2017-03-08T12:49:45.245Z,935.45
2017-03-08T12:50:58.548Z,935.48
2017-03-08T12:52:12.028Z,935.42
2017-03-08T12:53:25.304Z,935.48
2017-03-08T12:54:38.582Z,935.44
2017-03-08T12:57:18.766Z,935.42
2017-03-08T12:58:31.487Z,935.31
2017-03-08T12:59:44.771Z,935.35
2017-03-08T13:00:57.484Z,935.33
2017-03-08T13:02:10.763Z,935.31
2017-03-08T13:03:24.052Z,935.3
2017-03-08T13:04:36.191Z,935.24
2017-03-08T13:05:48.921Z,935.29
2017-03-08T13:07:02.206Z,935.31
2017-03-08T13:08:14.904Z,935.32
2017-03-08T13:09:28.184Z,935.34
2017-03-08T13:10:40.898Z,935.34
2017-03-08T13:11:53.619Z,935.32
2017-03-08T13:13:07.097Z,935.27
2017-03-08T13:14:19.802Z,935.25
2017-03-08T13:15:33.112Z,935.24
2017-03-08T13:16:46.416Z,935.19
2017-03-08T13:17:59.687Z,935.16
2017-03-08T13:19:12.970Z,935.15
2017-03-08T13:20:39.663Z,935.15
2017-03-08T13:21:52.944Z,935.16
2017-03-08T13:23:20.222Z,935.09
2017-03-08T13:24:33.504Z,935.11
2017-03-08T13:26:00.207Z,935.08
2017-03-08T13:27:13.489Z,935.06
2017-03-08T13:28:26.777Z,935.04
2017-03-08T13:29:40.063Z,935.02
2017-03-08T13:30:52.212Z,935.01
2017-03-08T13:32:05.501Z,935.01
2017-03-08T13:33:18.804Z,935.03
2017-03-08T13:34:31.721Z,935.03
2017-03-08T13:35:45.013Z,935.01
2017-03-08T13:36:58.295Z,935.05
2017-03-08T13:38:25.556Z,935.04
2017-03-08T13:39:38.885Z,935.06
2017-03-08T13:40:51.603Z,935
2017-03-08T13:42:04.875Z,935.06
2017-03-08T13:43:18.160Z,935.04
2017-03-08T13:44:30.877Z,935.07
2017-03-08T13:45:44.168Z,935.04
2017-03-08T13:46:57.433Z,935.07
2017-03-08T13:48:10.719Z,935.03
2017-03-08T13:49:23.454Z,935
2017-03-08T13:50:36.736Z,934.99
2017-03-08T13:51:50.036Z,935.02
2017-03-08T13:54:30.023Z,935.03
2017-03-08T13:55:43.299Z,935.01
2017-03-08T13:58:23.289Z,935.02
2017-03-08T13:59:35.444Z,934.99
2017-03-08T14:00:47.599Z,934.98
2017-03-08T14:02:00.898Z,935.04
2017-03-08T14:03:13.613Z,935.03
2017-03-08T14:04:25.771Z,935.06
2017-03-08T14:05:39.053Z,935.03
2017-03-08T14:06:52.345Z,935.03
2017-03-08T14:08:05.629Z,935.02
2017-03-08T14:09:32.899Z,935
2017-03-08T14:10:45.054Z,934.95
2017-03-08T14:11:58.343Z,934.94
2017-03-08T14:14:38.892Z,934.95
2017-03-08T14:15:50.468Z,934.96
2017-03-08T14:17:03.180Z,934.98
2017-03-08T14:18:16.460Z,934.93
2017-03-08T14:19:29.759Z,934.94
2017-03-08T14:20:43.074Z,934.95
2017-03-08T14:21:55.791Z,934.93
2017-03-08T14:23:09.107Z,934.93
2017-03-08T14:24:22.411Z,934.91
2017-03-08T14:27:02.408Z,934.88
2017-03-08T14:28:29.683Z,934.89
2017-03-08T14:29:42.976Z,934.86
2017-03-08T14:30:55.706Z,934.89
2017-03-08T14:32:08.994Z,934.91
2017-03-08T14:33:22.523Z,934.89
2017-03-08T14:34:38.738Z,934.88
2017-03-08T14:35:53.721Z,934.87
2017-03-08T14:37:09.691Z,934.84
2017-03-08T14:38:26.411Z,934.76
2017-03-08T14:39:47.448Z,934.74
2017-03-08T14:41:14.276Z,934.74
2017-03-08T14:42:32.272Z,934.74
2017-03-08T14:43:46.406Z,934.7
2017-03-08T14:45:04.827Z,934.71
2017-03-08T14:47:51.495Z,934.69
2017-03-08T14:49:07.492Z,934.67
2017-03-08T14:50:26.135Z,934.68
2017-03-08T14:51:42.849Z,934.64
2017-03-08T14:52:55.553Z,934.65
2017-03-08T14:54:08.839Z,934.62
2017-03-08T14:55:22.110Z,934.6
2017-03-08T14:58:30.613Z,934.51
2017-03-08T14:59:43.338Z,934.46
2017-03-08T15:00:56.628Z,934.5
2017-03-08T15:02:09.929Z,934.43
2017-03-08T15:03:23.208Z,934.4
2017-03-08T15:04:36.502Z,934.38
2017-03-08T15:05:49.805Z,934.38
2017-03-08T15:07:03.099Z,934.35
2017-03-08T15:08:30.105Z,934.35
2017-03-08T15:09:57.380Z,934.3
2017-03-08T15:11:24.063Z,934.32
2017-03-08T15:12:37.665Z,934.29
2017-03-08T15:13:49.815Z,934.3
2017-03-08T15:15:03.105Z,934.26
2017-03-08T15:16:30.368Z,934.21
2017-03-08T15:17:43.646Z,934.16
2017-03-08T15:18:56.958Z,934.14
2017-03-08T15:20:10.248Z,934.13
2017-03-08T15:21:23.536Z,934.17
2017-03-08T15:22:36.810Z,934.14
2017-03-08T15:23:50.110Z,934.12
2017-03-08T15:25:03.414Z,934.14
2017-03-08T15:26:16.709Z,934.12
2017-03-08T15:27:29.429Z,934.12
2017-03-08T15:28:43.008Z,934.12
2017-03-08T15:29:56.302Z,934.08
2017-03-08T15:31:09.062Z,934.08
2017-03-08T15:32:22.348Z,934.04
2017-03-08T15:33:35.678Z,934.06
2017-03-08T15:34:48.414Z,933.99
2017-03-08T15:36:01.702Z,934.01
2017-03-08T15:37:14.979Z,933.99
2017-03-08T15:38:27.721Z,933.92
2017-03-08T15:39:41.314Z,933.9
2017-03-08T15:40:54.603Z,933.91
2017-03-08T15:42:21.856Z,933.92
2017-03-08T15:43:34.022Z,933.9
2017-03-08T15:44:47.617Z,933.87
2017-03-08T15:46:00.950Z,933.85
2017-03-08T15:47:14.264Z,933.8
2017-03-08T15:48:27.571Z,933.83
2017-03-08T15:49:40.881Z,933.8
2017-03-08T15:50:53.063Z,933.76
2017-03-08T15:52:06.340Z,933.73
2017-03-08T15:53:19.625Z,933.72
2017-03-08T15:56:00.199Z,933.64
2017-03-08T15:58:40.762Z,933.63
2017-03-08T15:59:53.500Z,933.58
2017-03-08T16:01:20.774Z,933.59
2017-03-08T16:02:34.071Z,933.53
2017-03-08T16:04:01.366Z,933.53
2017-03-08T16:05:14.098Z,933.5
2017-03-08T16:06:26.865Z,933.48
2017-03-08T16:07:40.210Z,933.56
2017-03-08T16:08:53.511Z,933.57
2017-03-08T16:10:06.803Z,933.52
2017-03-08T16:11:19.828Z,933.47
2017-03-08T16:12:33.131Z,933.44
2017-03-08T16:13:46.434Z,933.4
2017-03-08T16:14:59.745Z,933.36
2017-03-08T16:16:13.349Z,933.38
2017-03-08T16:17:26.660Z,933.38
2017-03-08T16:18:39.955Z,933.3
2017-03-08T16:19:53.264Z,933.27
2017-03-08T16:21:06.615Z,933.29
2017-03-08T16:22:33.901Z,933.22
2017-03-08T16:23:47.189Z,933.22
2017-03-08T16:25:00.489Z,933.2
2017-03-08T16:26:13.780Z,933.2
2017-03-08T16:27:26.773Z,933.18
2017-03-08T16:28:39.509Z,933.15
2017-03-08T16:29:52.836Z,933.17
2017-03-08T16:31:06.162Z,933.15
2017-03-08T16:32:19.480Z,933.13
2017-03-08T16:33:46.767Z,933.13
2017-03-08T16:35:00.110Z,933.12
2017-03-08T16:36:13.430Z,933.12
2017-03-08T16:37:26.168Z,933.1
2017-03-08T16:38:39.501Z,933.09
2017-03-08T16:39:52.788Z,933.07
2017-03-08T16:41:06.126Z,933.05
2017-03-08T16:42:19.448Z,933.08
2017-03-08T16:43:32.755Z,933.06
2017-03-08T16:44:45.515Z,933.06
2017-03-08T16:45:58.830Z,933.02
2017-03-08T16:47:26.147Z,932.99
2017-03-08T16:48:38.879Z,933
2017-03-08T16:49:52.409Z,933
2017-03-08T16:51:05.745Z,932.9
2017-03-08T16:52:19.051Z,932.85
2017-03-08T16:53:32.041Z,932.87
2017-03-08T16:54:45.389Z,932.85
2017-03-08T16:56:12.671Z,932.88
2017-03-08T16:57:25.410Z,932.89
2017-03-08T16:58:52.974Z,932.95
2017-03-08T17:00:06.293Z,932.91
2017-03-08T17:01:19.625Z,932.93
2017-03-08T17:02:33.287Z,932.95
2017-03-08T17:03:46.597Z,932.91
2017-03-08T17:04:59.948Z,932.89
2017-03-08T17:06:13.245Z,932.91
2017-03-08T17:07:26.626Z,932.87
2017-03-08T17:08:39.965Z,932.87
2017-03-08T17:09:53.259Z,932.82
2017-03-08T17:11:19.975Z,932.84
2017-03-08T17:12:46.135Z,932.82
2017-03-08T17:14:13.558Z,932.92
2017-03-08T17:15:26.900Z,932.81
2017-03-08T17:18:23.415Z,932.84
2017-03-08T17:19:36.753Z,932.82
2017-03-08T17:20:50.077Z,932.75
2017-03-08T17:22:02.815Z,932.77
2017-03-08T17:23:16.159Z,932.63
2017-03-08T17:24:29.729Z,932.7
2017-03-08T17:25:43.066Z,932.64
2017-03-08T17:26:56.420Z,932.64
2017-03-08T17:28:09.759Z,932.63
2017-03-08T17:29:23.146Z,932.63
2017-03-08T17:30:36.485Z,932.61
2017-03-08T17:33:17.275Z,932.59
2017-03-08T17:34:30.590Z,932.58
2017-03-08T17:35:43.927Z,932.58
2017-03-08T17:36:56.894Z,932.58
2017-03-08T17:38:10.220Z,932.58
2017-03-08T17:39:23.536Z,932.54
2017-03-08T17:40:36.873Z,932.56
2017-03-08T17:41:50.203Z,932.5
2017-03-08T17:43:02.956Z,932.46
2017-03-08T17:44:15.695Z,932.5
2017-03-08T17:45:29.258Z,932.46
2017-03-08T17:46:42.038Z,932.41
2017-03-08T17:47:55.753Z,932.44
2017-03-08T17:49:09.097Z,932.44
2017-03-08T17:50:22.403Z,932.38
2017-03-08T17:51:35.202Z,932.37
2017-03-08T17:52:48.500Z,932.41
2017-03-08T17:55:29.130Z,932.36
2017-03-08T17:56:42.168Z,932.33
2017-03-08T17:57:56.675Z,932.4
2017-03-08T17:59:09.427Z,932.39
2017-03-08T18:00:22.757Z,932.4
2017-03-08T18:01:36.080Z,932.37
2017-03-08T18:02:49.419Z,932.39
2017-03-08T18:04:02.774Z,932.34
2017-03-08T18:05:15.531Z,932.3
2017-03-08T18:06:28.516Z,932.35
2017-03-08T18:08:09.774Z,932.25
2017-03-08T18:09:23.096Z,932.3
2017-03-08T18:10:35.889Z,932.24
2017-03-08T18:11:49.497Z,932.27
2017-03-08T18:13:02.859Z,932.18
2017-03-08T18:14:15.630Z,932.27
2017-03-08T18:15:28.945Z,932.23
2017-03-08T18:16:41.719Z,932.3
2017-03-08T18:18:09.003Z,932.31
2017-03-08T18:19:21.975Z,932.23
2017-03-08T18:20:35.294Z,932.18
2017-03-08T18:21:48.609Z,932.11
2017-03-08T18:23:01.949Z,932.11
2017-03-08T18:24:15.282Z,932.03
2017-03-08T18:25:28.564Z,932.1
2017-03-08T18:28:09.210Z,932.17
2017-03-08T18:29:22.557Z,932.2
2017-03-08T18:30:35.899Z,932.28
2017-03-08T18:31:49.319Z,932.22
2017-03-08T18:33:03.007Z,932.22
2017-03-08T18:34:15.789Z,932.28
2017-03-08T18:35:28.014Z,932.34
2017-03-08T18:36:40.831Z,932.34
2017-03-08T18:37:54.454Z,932.32
2017-03-08T18:39:07.801Z,932.29
2017-03-08T18:40:21.132Z,932.28
2017-03-08T18:41:33.874Z,932.32
2017-03-08T18:42:46.618Z,932.33
2017-03-08T18:43:59.968Z,932.37
2017-03-08T18:45:12.706Z,932.39
2017-03-08T18:46:26.024Z,932.34
2017-03-08T18:47:39.371Z,932.32
2017-03-08T18:50:19.954Z,932.18
2017-03-08T18:51:32.665Z,932.25
2017-03-08T18:52:46.003Z,932.21
2017-03-08T18:53:59.312Z,932.27
2017-03-08T18:55:12.915Z,932.32
2017-03-08T18:56:26.219Z,932.38
2017-03-08T18:57:39.522Z,932.47
2017-03-08T18:58:52.279Z,932.48
2017-03-08T19:00:19.559Z,932.45
2017-03-08T19:01:32.885Z,932.45
2017-03-08T19:02:46.204Z,932.49
2017-03-08T19:03:59.520Z,932.48
2017-03-08T19:05:12.823Z,932.47
2017-03-08T19:06:26.153Z,932.5
2017-03-08T19:07:39.492Z,932.51
2017-03-08T19:08:52.803Z,932.48
2017-03-08T19:11:32.884Z,932.57
2017-03-08T19:12:46.220Z,932.56
2017-03-08T19:13:58.399Z,932.59
2017-03-08T19:15:11.736Z,932.59
2017-03-08T19:16:23.899Z,932.66
2017-03-08T19:17:36.661Z,932.72
2017-03-08T19:18:49.975Z,932.78
2017-03-08T19:20:03.302Z,932.84
2017-03-08T19:21:16.647Z,932.83
2017-03-08T19:22:28.836Z,932.84
2017-03-08T19:23:42.161Z,932.87
2017-03-08T19:24:55.476Z,932.9
2017-03-08T19:26:08.794Z,932.93
2017-03-08T19:28:48.974Z,932.93
2017-03-08T19:30:01.901Z,932.95
2017-03-08T19:31:14.831Z,933
2017-03-08T19:32:28.317Z,932.99
2017-03-08T19:33:41.791Z,932.94
2017-03-08T19:34:54.706Z,933
2017-03-08T19:36:08.248Z,932.94
2017-03-08T19:37:21.944Z,932.93
2017-03-08T19:38:35.443Z,932.87
2017-03-08T19:39:48.918Z,932.93
2017-03-08T19:41:02.389Z,932.88
2017-03-08T19:42:15.886Z,932.92
2017-03-08T19:44:56.229Z,932.96
2017-03-08T19:46:09.753Z,932.95
2017-03-08T19:47:23.239Z,933
2017-03-08T19:48:36.774Z,933
2017-03-08T19:49:50.265Z,933
2017-03-08T19:51:03.760Z,933.04
2017-03-08T19:52:16.703Z,933.05
2017-03-08T19:53:30.186Z,933
2017-03-08T19:56:11.312Z,932.97
2017-03-08T19:57:24.203Z,932.95
2017-03-08T19:58:36.520Z,932.99
2017-03-08T20:01:31.571Z,932.94
2017-03-08T20:02:45.061Z,933.02
2017-03-08T20:03:58.532Z,933.01
2017-03-08T20:05:12.045Z,932.99
2017-03-08T20:06:25.515Z,932.98
2017-03-08T20:07:38.990Z,932.96
2017-03-08T20:08:52.494Z,932.95
2017-03-08T20:10:05.682Z,933
2017-03-08T20:11:18.583Z,932.96
2017-03-08T20:12:32.048Z,932.93
2017-03-08T20:13:45.534Z,932.93
2017-03-08T20:15:12.381Z,932.9
2017-03-08T20:16:25.866Z,932.94
2017-03-08T20:17:39.317Z,932.94
2017-03-08T20:18:52.800Z,932.94
2017-03-08T20:20:06.286Z,932.96
2017-03-08T20:21:33.136Z,932.98
2017-03-08T20:24:27.970Z,932.89
2017-03-08T20:25:41.704Z,932.9
2017-03-08T20:26:55.157Z,932.97
2017-03-08T20:28:21.838Z,932.87
2017-03-08T20:29:33.993Z,932.86
2017-03-08T20:30:46.714Z,932.82
2017-03-08T20:31:59.454Z,932.81
2017-03-08T20:33:12.224Z,932.87
2017-03-08T20:34:24.971Z,932.87
2017-03-08T20:35:36.579Z,932.82
2017-03-08T20:36:48.768Z,932.85
2017-03-08T20:38:01.526Z,932.89
2017-03-08T20:39:14.286Z,932.84
2017-03-08T20:40:41.568Z,932.89
2017-03-08T20:41:54.623Z,932.92
2017-03-08T20:43:07.907Z,932.97
2017-03-08T20:44:21.223Z,932.94
2017-03-08T20:45:34.524Z,932.93
2017-03-08T20:46:48.023Z,932.95
2017-03-08T20:48:01.347Z,932.98
2017-03-08T20:49:14.698Z,933
2017-03-08T20:50:41.958Z,932.96
2017-03-08T20:51:55.553Z,932.93
2017-03-08T20:53:08.299Z,932.97
2017-03-08T20:54:35.571Z,932.98
2017-03-08T20:56:02.272Z,932.92
2017-03-08T20:57:15.850Z,933.02
2017-03-08T20:58:29.128Z,932.91
2017-03-08T20:59:42.416Z,932.95
2017-03-08T21:00:55.709Z,932.97
2017-03-08T21:02:08.988Z,932.9
2017-03-08T21:03:22.263Z,932.88
2017-03-08T21:04:34.997Z,932.9
2017-03-08T21:05:48.281Z,932.9
2017-03-08T21:07:01.554Z,932.92
2017-03-08T21:08:14.835Z,932.92
2017-03-08T21:09:28.165Z,933
2017-03-08T21:10:40.880Z,932.98
2017-03-08T21:11:54.153Z,932.98
2017-03-08T21:13:07.442Z,933.03
2017-03-08T21:14:34.707Z,933.02
2017-03-08T21:15:48.004Z,933.03
2017-03-08T21:17:01.280Z,932.96
2017-03-08T21:18:28.522Z,932.91
2017-03-08T21:19:41.439Z,932.93
2017-03-08T21:20:54.707Z,932.92
2017-03-08T21:22:08.009Z,932.97
2017-03-08T21:23:20.158Z,932.98
2017-03-08T21:24:33.435Z,933.03
2017-03-08T21:25:46.155Z,933.11
2017-03-08T21:26:59.434Z,933.14
2017-03-08T21:28:12.724Z,933.23
2017-03-08T21:29:25.456Z,933.3
2017-03-08T21:30:38.167Z,933.31
2017-03-08T21:31:50.890Z,933.37
2017-03-08T21:34:30.892Z,933.41
2017-03-08T21:35:44.213Z,933.36
2017-03-08T21:36:57.511Z,933.33
2017-03-08T21:38:10.799Z,933.35
2017-03-08T21:39:38.086Z,933.35
2017-03-08T21:40:51.565Z,933.38
2017-03-08T21:42:04.291Z,933.36
2017-03-08T21:43:17.017Z,933.39
2017-03-08T21:44:30.311Z,933.47
2017-03-08T21:45:43.820Z,933.51
2017-03-08T21:46:57.113Z,933.42
2017-03-08T21:48:10.410Z,933.47
2017-03-08T21:49:23.728Z,933.47
2017-03-08T21:50:37.030Z,933.49
2017-03-08T21:51:50.305Z,933.46
2017-03-08T21:53:03.039Z,933.48
2017-03-08T21:54:15.192Z,933.5
2017-03-08T21:55:28.468Z,933.51
2017-03-08T21:56:42.070Z,933.52
2017-03-08T21:57:54.767Z,933.57
2017-03-08T21:59:07.529Z,933.56
2017-03-08T22:00:20.287Z,933.62
2017-03-08T22:01:33.780Z,933.65
2017-03-08T22:02:47.063Z,933.7
2017-03-08T22:04:00.381Z,933.75
2017-03-08T22:05:13.683Z,933.82
2017-03-08T22:06:26.391Z,933.78
2017-03-08T22:07:39.878Z,933.83
2017-03-08T22:08:53.181Z,933.84
2017-03-08T22:10:05.904Z,933.87
2017-03-08T22:11:19.206Z,933.83
2017-03-08T22:12:32.724Z,933.83
2017-03-08T22:13:46.016Z,933.84
2017-03-08T22:14:59.315Z,933.83
2017-03-08T22:16:11.491Z,933.91
2017-03-08T22:17:24.803Z,933.85
2017-03-08T22:18:38.297Z,933.88
2017-03-08T22:19:51.600Z,933.93
2017-03-08T22:21:04.902Z,933.93
2017-03-08T22:22:17.066Z,933.97
2017-03-08T22:23:29.988Z,933.97
2017-03-08T22:24:43.290Z,933.98
2017-03-08T22:26:09.998Z,933.97
2017-03-08T22:28:50.550Z,934
2017-03-08T22:31:30.551Z,934.03
2017-03-08T22:32:42.756Z,934.03
2017-03-08T22:33:56.042Z,934.05
2017-03-08T22:35:09.342Z,934.12
2017-03-08T22:37:49.949Z,934.14
2017-03-08T22:39:02.686Z,934.17
2017-03-08T22:40:29.965Z,934.15
2017-03-08T22:41:43.479Z,934.1
2017-03-08T22:42:56.204Z,934.06
2017-03-08T22:44:23.678Z,934
2017-03-08T22:45:37.013Z,934.01
2017-03-08T22:46:50.319Z,934.03
2017-03-08T22:49:30.886Z,934.06
2017-03-08T22:52:10.961Z,934.11
2017-03-08T22:53:24.286Z,934.16
2017-03-08T22:54:51.594Z,934.13
2017-03-08T22:56:04.925Z,934.15
2017-03-08T22:58:44.409Z,934.19
2017-03-08T22:59:57.726Z,934.19
2017-03-08T23:01:10.482Z,934.23
2017-03-08T23:02:23.246Z,934.18
2017-03-08T23:03:36.555Z,934.19
2017-03-08T23:04:49.298Z,934.17
2017-03-08T23:06:02.836Z,934.18
2017-03-08T23:08:42.288Z,934.21
2017-03-08T23:09:55.613Z,934.28
2017-03-08T23:11:08.554Z,934.26
2017-03-08T23:12:35.827Z,934.28
2017-03-08T23:13:48.803Z,934.26
2017-03-08T23:15:02.122Z,934.23
2017-03-08T23:16:28.853Z,934.22
2017-03-08T23:17:42.178Z,934.17
2017-03-08T23:18:55.505Z,934.17
2017-03-08T23:20:08.888Z,934.19
2017-03-08T23:21:22.221Z,934.2
2017-03-08T23:22:35.538Z,934.2
2017-03-08T23:23:48.881Z,934.22
2017-03-08T23:25:02.208Z,934.24
2017-03-08T23:26:29.702Z,934.22
2017-03-08T23:27:42.675Z,934.2
2017-03-08T23:28:56.476Z,934.16
2017-03-08T23:30:08.804Z,934.22
2017-03-08T23:31:22.426Z,934.25
2017-03-08T23:32:35.720Z,934.27
2017-03-08T23:33:49.037Z,934.24
2017-03-08T23:35:02.359Z,934.28
2017-03-08T23:36:15.657Z,934.31
2017-03-08T23:37:29.277Z,934.32
2017-03-08T23:38:42.581Z,934.39
2017-03-08T23:39:55.885Z,934.32
2017-03-08T23:41:09.207Z,934.34
2017-03-08T23:42:21.951Z,934.35
2017-03-08T23:43:35.245Z,934.37
2017-03-08T23:44:47.991Z,934.38
2017-03-08T23:46:01.926Z,934.43
2017-03-08T23:47:15.217Z,934.46
2017-03-08T23:48:27.955Z,934.48
2017-03-08T23:49:41.285Z,934.52
2017-03-08T23:50:54.605Z,934.55
2017-03-08T23:52:07.904Z,934.55
2017-03-08T23:53:20.663Z,934.56
2017-03-08T23:54:33.979Z,934.56
2017-03-08T23:55:47.301Z,934.58
2017-03-08T23:57:00.651Z,934.6
2017-03-08T23:58:13.988Z,934.58
2017-03-08T23:59:41.249Z,934.62
